sensor_id;sensor_type;location;lat;lon;timestamp;P1;durP1;ratioP1;P2;durP2;ratioP2
10295;SDS011;5193;51.032;6.356;2023-03-14T00:00:36;6.23;;;1.40;;
10295;SDS011;5193;51.032;6.356;2023-03-14T00:03:02;4.43;;;1.20;;
10295;SDS011;5193;51.032;6.356;2023-03-14T00:05:28;6.27;;;1.77;;
10295;SDS011;5193;51.032;6.356;2023-03-14T00:07:53;7.67;;;1.73;;
10295;SDS011;5193;51.032;6.356;2023-03-14T00:10:19;6.23;;;1.67;;
10295;SDS011;5193;51.032;6.356;2023-03-14T00:12:45;6.83;;;1.70;;
10295;SDS011;5193;51.032;6.356;2023-03-14T00:15:11;9.33;;;1.40;;
10295;SDS011;5193;51.032;6.356;2023-03-14T00:17:37;3.07;;;0.97;;
10295;SDS011;5193;51.032;6.356;2023-03-14T00:20:03;1.03;;;0.67;;
10295;SDS011;5193;51.032;6.356;2023-03-14T00:22:39;2.63;;;0.70;;
10295;SDS011;5193;51.032;6.356;2023-03-14T00:25:07;3.80;;;0.80;;
10295;SDS011;5193;51.032;6.356;2023-03-14T00:27:34;2.57;;;1.20;;
10295;SDS011;5193;51.032;6.356;2023-03-14T00:30:00;5.07;;;1.10;;
10295;SDS011;5193;51.032;6.356;2023-03-14T00:32:26;4.80;;;1.03;;
10295;SDS011;5193;51.032;6.356;2023-03-14T00:34:51;8.77;;;1.10;;
10295;SDS011;5193;51.032;6.356;2023-03-14T00:37:17;3.57;;;0.77;;
10295;SDS011;5193;51.032;6.356;2023-03-14T00:39:42;2.70;;;0.77;;
10295;SDS011;5193;51.032;6.356;2023-03-14T00:42:08;4.40;;;0.80;;
10295;SDS011;5193;51.032;6.356;2023-03-14T00:44:34;1.60;;;0.70;;
10295;SDS011;5193;51.032;6.356;2023-03-14T00:46:59;4.03;;;1.00;;
10295;SDS011;5193;51.032;6.356;2023-03-14T00:49:25;2.23;;;0.70;;
10295;SDS011;5193;51.032;6.356;2023-03-14T00:51:50;4.53;;;1.03;;
10295;SDS011;5193;51.032;6.356;2023-03-14T00:54:17;4.10;;;1.20;;
10295;SDS011;5193;51.032;6.356;2023-03-14T00:56:43;4.27;;;1.10;;
10295;SDS011;5193;51.032;6.356;2023-03-14T00:59:08;4.93;;;1.23;;
10295;SDS011;5193;51.032;6.356;2023-03-14T01:01:34;3.33;;;1.30;;
10295;SDS011;5193;51.032;6.356;2023-03-14T01:03:59;3.60;;;0.90;;
10295;SDS011;5193;51.032;6.356;2023-03-14T01:06:26;4.37;;;1.10;;
10295;SDS011;5193;51.032;6.356;2023-03-14T01:08:53;3.47;;;1.13;;
10295;SDS011;5193;51.032;6.356;2023-03-14T01:11:24;4.43;;;1.00;;
10295;SDS011;5193;51.032;6.356;2023-03-14T01:13:51;6.13;;;1.43;;
10295;SDS011;5193;51.032;6.356;2023-03-14T01:16:17;3.83;;;1.33;;
10295;SDS011;5193;51.032;6.356;2023-03-14T01:18:45;5.33;;;1.50;;
10295;SDS011;5193;51.032;6.356;2023-03-14T01:23:46;3.87;;;1.13;;
10295;SDS011;5193;51.032;6.356;2023-03-14T01:26:13;3.63;;;1.00;;
10295;SDS011;5193;51.032;6.356;2023-03-14T01:28:40;4.40;;;1.00;;
10295;SDS011;5193;51.032;6.356;2023-03-14T01:31:07;6.37;;;1.43;;
10295;SDS011;5193;51.032;6.356;2023-03-14T01:33:34;6.13;;;1.03;;
10295;SDS011;5193;51.032;6.356;2023-03-14T01:36:00;5.43;;;1.40;;
10295;SDS011;5193;51.032;6.356;2023-03-14T01:38:27;7.43;;;1.60;;
10295;SDS011;5193;51.032;6.356;2023-03-14T01:40:53;5.70;;;1.20;;
10295;SDS011;5193;51.032;6.356;2023-03-14T01:43:19;7.83;;;1.60;;
10295;SDS011;5193;51.032;6.356;2023-03-14T01:48:26;8.63;;;1.10;;
10295;SDS011;5193;51.032;6.356;2023-03-14T01:50:56;5.03;;;1.10;;
10295;SDS011;5193;51.032;6.356;2023-03-14T01:53:22;4.43;;;1.30;;
10295;SDS011;5193;51.032;6.356;2023-03-14T01:55:48;5.23;;;1.40;;
10295;SDS011;5193;51.032;6.356;2023-03-14T01:58:17;7.37;;;1.47;;
10295;SDS011;5193;51.032;6.356;2023-03-14T02:00:44;5.63;;;0.93;;
10295;SDS011;5193;51.032;6.356;2023-03-14T02:03:11;4.53;;;1.20;;
10295;SDS011;5193;51.032;6.356;2023-03-14T02:05:41;5.27;;;1.30;;
10295;SDS011;5193;51.032;6.356;2023-03-14T02:08:13;3.73;;;0.70;;
10295;SDS011;5193;51.032;6.356;2023-03-14T02:10:41;3.47;;;0.97;;
10295;SDS011;5193;51.032;6.356;2023-03-14T02:13:09;5.13;;;0.90;;
10295;SDS011;5193;51.032;6.356;2023-03-14T02:15:36;4.57;;;1.07;;
10295;SDS011;5193;51.032;6.356;2023-03-14T02:18:03;2.70;;;1.17;;
10295;SDS011;5193;51.032;6.356;2023-03-14T02:23:00;6.73;;;1.27;;
10295;SDS011;5193;51.032;6.356;2023-03-14T02:28:00;7.73;;;1.10;;
10295;SDS011;5193;51.032;6.356;2023-03-14T02:30:28;4.20;;;1.00;;
10295;SDS011;5193;51.032;6.356;2023-03-14T02:32:59;5.07;;;1.20;;
10295;SDS011;5193;51.032;6.356;2023-03-14T02:35:29;6.83;;;1.53;;
10295;SDS011;5193;51.032;6.356;2023-03-14T02:40:49;5.87;;;1.80;;
10295;SDS011;5193;51.032;6.356;2023-03-14T02:43:15;6.10;;;1.10;;
10295;SDS011;5193;51.032;6.356;2023-03-14T02:45:45;5.33;;;1.27;;
10295;SDS011;5193;51.032;6.356;2023-03-14T02:48:24;5.23;;;1.30;;
10295;SDS011;5193;51.032;6.356;2023-03-14T02:50:56;8.67;;;1.47;;
10295;SDS011;5193;51.032;6.356;2023-03-14T02:53:28;6.07;;;1.07;;
10295;SDS011;5193;51.032;6.356;2023-03-14T02:55:58;5.40;;;1.30;;
10295;SDS011;5193;51.032;6.356;2023-03-14T02:58:25;4.93;;;1.20;;
10295;SDS011;5193;51.032;6.356;2023-03-14T03:00:51;7.17;;;1.17;;
10295;SDS011;5193;51.032;6.356;2023-03-14T03:03:17;12.70;;;1.13;;
10295;SDS011;5193;51.032;6.356;2023-03-14T03:05:47;6.97;;;1.80;;
10295;SDS011;5193;51.032;6.356;2023-03-14T03:08:13;10.10;;;1.83;;
10295;SDS011;5193;51.032;6.356;2023-03-14T03:10:39;6.27;;;1.90;;
10295;SDS011;5193;51.032;6.356;2023-03-14T03:13:04;8.77;;;2.17;;
10295;SDS011;5193;51.032;6.356;2023-03-14T03:15:30;21.27;;;2.10;;
10295;SDS011;5193;51.032;6.356;2023-03-14T03:17:55;7.77;;;1.70;;
10295;SDS011;5193;51.032;6.356;2023-03-14T03:20:21;5.03;;;1.77;;
10295;SDS011;5193;51.032;6.356;2023-03-14T03:22:46;6.70;;;1.53;;
10295;SDS011;5193;51.032;6.356;2023-03-14T03:25:13;11.07;;;1.70;;
10295;SDS011;5193;51.032;6.356;2023-03-14T03:27:39;5.40;;;1.57;;
10295;SDS011;5193;51.032;6.356;2023-03-14T03:30:05;9.30;;;1.57;;
10295;SDS011;5193;51.032;6.356;2023-03-14T03:32:31;5.97;;;1.20;;
10295;SDS011;5193;51.032;6.356;2023-03-14T03:34:57;7.40;;;1.67;;
10295;SDS011;5193;51.032;6.356;2023-03-14T03:37:23;2.70;;;1.10;;
10295;SDS011;5193;51.032;6.356;2023-03-14T03:39:52;2.70;;;1.23;;
10295;SDS011;5193;51.032;6.356;2023-03-14T03:42:18;6.07;;;1.30;;
10295;SDS011;5193;51.032;6.356;2023-03-14T03:44:43;6.43;;;1.37;;
10295;SDS011;5193;51.032;6.356;2023-03-14T03:47:09;5.47;;;1.23;;
10295;SDS011;5193;51.032;6.356;2023-03-14T03:49:35;4.17;;;1.33;;
10295;SDS011;5193;51.032;6.356;2023-03-14T03:52:00;10.93;;;1.60;;
10295;SDS011;5193;51.032;6.356;2023-03-14T03:54:26;4.37;;;1.00;;
10295;SDS011;5193;51.032;6.356;2023-03-14T03:56:53;2.20;;;1.10;;
10295;SDS011;5193;51.032;6.356;2023-03-14T03:59:19;2.43;;;1.00;;
10295;SDS011;5193;51.032;6.356;2023-03-14T04:01:45;3.73;;;1.20;;
10295;SDS011;5193;51.032;6.356;2023-03-14T04:04:10;4.93;;;0.83;;
10295;SDS011;5193;51.032;6.356;2023-03-14T04:06:36;0.40;;;0.40;;
10295;SDS011;5193;51.032;6.356;2023-03-14T04:09:02;2.67;;;0.80;;
10295;SDS011;5193;51.032;6.356;2023-03-14T04:11:28;2.00;;;0.57;;
10295;SDS011;5193;51.032;6.356;2023-03-14T04:13:53;2.93;;;0.87;;
10295;SDS011;5193;51.032;6.356;2023-03-14T04:16:21;3.77;;;0.80;;
10295;SDS011;5193;51.032;6.356;2023-03-14T04:18:48;1.77;;;0.50;;
10295;SDS011;5193;51.032;6.356;2023-03-14T04:21:14;2.27;;;0.70;;
10295;SDS011;5193;51.032;6.356;2023-03-14T04:23:40;1.03;;;0.57;;
10295;SDS011;5193;51.032;6.356;2023-03-14T04:26:06;1.77;;;0.67;;
10295;SDS011;5193;51.032;6.356;2023-03-14T04:28:32;1.77;;;0.40;;
10295;SDS011;5193;51.032;6.356;2023-03-14T04:30:58;1.80;;;0.47;;
10295;SDS011;5193;51.032;6.356;2023-03-14T04:33:23;0.70;;;0.40;;
10295;SDS011;5193;51.032;6.356;2023-03-14T04:35:52;1.37;;;0.53;;
10295;SDS011;5193;51.032;6.356;2023-03-14T04:38:19;0.40;;;0.30;;
10295;SDS011;5193;51.032;6.356;2023-03-14T04:40:44;0.80;;;0.50;;
10295;SDS011;5193;51.032;6.356;2023-03-14T04:43:10;0.70;;;0.43;;
10295;SDS011;5193;51.032;6.356;2023-03-14T04:45:36;1.67;;;0.50;;
10295;SDS011;5193;51.032;6.356;2023-03-14T04:48:05;1.60;;;0.53;;
10295;SDS011;5193;51.032;6.356;2023-03-14T04:50:31;0.77;;;0.60;;
10295;SDS011;5193;51.032;6.356;2023-03-14T04:52:56;0.90;;;0.37;;
10295;SDS011;5193;51.032;6.356;2023-03-14T04:55:22;0.30;;;0.30;;
10295;SDS011;5193;51.032;6.356;2023-03-14T04:57:47;0.30;;;0.30;;
10295;SDS011;5193;51.032;6.356;2023-03-14T05:00:13;0.40;;;0.40;;
10295;SDS011;5193;51.032;6.356;2023-03-14T05:02:39;1.73;;;0.40;;
10295;SDS011;5193;51.032;6.356;2023-03-14T05:05:04;0.40;;;0.30;;
10295;SDS011;5193;51.032;6.356;2023-03-14T05:07:30;2.03;;;0.30;;
10295;SDS011;5193;51.032;6.356;2023-03-14T05:09:56;0.53;;;0.23;;
10295;SDS011;5193;51.032;6.356;2023-03-14T05:12:21;0.20;;;0.20;;
10295;SDS011;5193;51.032;6.356;2023-03-14T05:14:47;1.50;;;0.30;;
10295;SDS011;5193;51.032;6.356;2023-03-14T05:17:12;2.80;;;0.47;;
10295;SDS011;5193;51.032;6.356;2023-03-14T05:19:39;2.10;;;0.30;;
10295;SDS011;5193;51.032;6.356;2023-03-14T05:22:06;0.50;;;0.20;;
10295;SDS011;5193;51.032;6.356;2023-03-14T05:24:32;0.80;;;0.30;;
10295;SDS011;5193;51.032;6.356;2023-03-14T05:26:57;0.20;;;0.20;;
10295;SDS011;5193;51.032;6.356;2023-03-14T05:29:23;0.67;;;0.30;;
10295;SDS011;5193;51.032;6.356;2023-03-14T05:31:49;0.20;;;0.20;;
10295;SDS011;5193;51.032;6.356;2023-03-14T05:34:14;0.20;;;0.20;;
10295;SDS011;5193;51.032;6.356;2023-03-14T05:36:40;0.20;;;0.20;;
10295;SDS011;5193;51.032;6.356;2023-03-14T05:39:05;0.33;;;0.30;;
10295;SDS011;5193;51.032;6.356;2023-03-14T05:41:32;0.30;;;0.30;;
10295;SDS011;5193;51.032;6.356;2023-03-14T05:43:58;0.63;;;0.30;;
10295;SDS011;5193;51.032;6.356;2023-03-14T05:46:24;0.10;;;0.10;;
10295;SDS011;5193;51.032;6.356;2023-03-14T05:48:49;0.77;;;0.30;;
10295;SDS011;5193;51.032;6.356;2023-03-14T05:51:15;0.47;;;0.27;;
10295;SDS011;5193;51.032;6.356;2023-03-14T05:53:40;0.20;;;0.20;;
10295;SDS011;5193;51.032;6.356;2023-03-14T05:56:06;1.93;;;0.40;;
10295;SDS011;5193;51.032;6.356;2023-03-14T05:58:32;0.20;;;0.20;;
10295;SDS011;5193;51.032;6.356;2023-03-14T06:01:01;2.57;;;0.30;;
10295;SDS011;5193;51.032;6.356;2023-03-14T06:03:28;0.20;;;0.20;;
10295;SDS011;5193;51.032;6.356;2023-03-14T06:05:54;0.20;;;0.20;;
10295;SDS011;5193;51.032;6.356;2023-03-14T06:08:19;0.33;;;0.33;;
10295;SDS011;5193;51.032;6.356;2023-03-14T06:10:45;0.20;;;0.20;;
10295;SDS011;5193;51.032;6.356;2023-03-14T06:13:10;0.20;;;0.20;;
10295;SDS011;5193;51.032;6.356;2023-03-14T06:15:36;2.10;;;0.30;;
10295;SDS011;5193;51.032;6.356;2023-03-14T06:18:01;1.03;;;0.20;;
10295;SDS011;5193;51.032;6.356;2023-03-14T06:20:27;0.10;;;0.10;;
10295;SDS011;5193;51.032;6.356;2023-03-14T06:22:53;0.30;;;0.30;;
10295;SDS011;5193;51.032;6.356;2023-03-14T06:25:18;0.20;;;0.20;;
10295;SDS011;5193;51.032;6.356;2023-03-14T06:27:44;0.30;;;0.30;;
10295;SDS011;5193;51.032;6.356;2023-03-14T06:30:11;0.20;;;0.20;;
10295;SDS011;5193;51.032;6.356;2023-03-14T06:32:36;0.97;;;0.30;;
10295;SDS011;5193;51.032;6.356;2023-03-14T06:35:02;0.20;;;0.20;;
10295;SDS011;5193;51.032;6.356;2023-03-14T06:37:28;0.30;;;0.27;;
10295;SDS011;5193;51.032;6.356;2023-03-14T06:39:55;1.20;;;0.20;;
10295;SDS011;5193;51.032;6.356;2023-03-14T06:42:21;0.20;;;0.20;;
10295;SDS011;5193;51.032;6.356;2023-03-14T06:44:47;0.43;;;0.20;;
10295;SDS011;5193;51.032;6.356;2023-03-14T06:47:13;1.33;;;0.30;;
10295;SDS011;5193;51.032;6.356;2023-03-14T06:49:39;0.40;;;0.30;;
10295;SDS011;5193;51.032;6.356;2023-03-14T06:52:04;0.20;;;0.20;;
10295;SDS011;5193;51.032;6.356;2023-03-14T06:54:30;0.20;;;0.20;;
10295;SDS011;5193;51.032;6.356;2023-03-14T06:56:55;0.30;;;0.30;;
10295;SDS011;5193;51.032;6.356;2023-03-14T06:59:21;0.30;;;0.23;;
10295;SDS011;5193;51.032;6.356;2023-03-14T07:01:46;0.20;;;0.20;;
10295;SDS011;5193;51.032;6.356;2023-03-14T07:04:13;1.10;;;0.33;;
10295;SDS011;5193;51.032;6.356;2023-03-14T07:06:38;0.30;;;0.30;;
10295;SDS011;5193;51.032;6.356;2023-03-14T07:09:09;0.37;;;0.30;;
10295;SDS011;5193;51.032;6.356;2023-03-14T07:11:37;1.07;;;0.30;;
10295;SDS011;5193;51.032;6.356;2023-03-14T07:14:03;0.73;;;0.30;;
10295;SDS011;5193;51.032;6.356;2023-03-14T07:16:28;1.23;;;0.40;;
10295;SDS011;5193;51.032;6.356;2023-03-14T07:18:57;1.27;;;0.40;;
10295;SDS011;5193;51.032;6.356;2023-03-14T07:21:23;0.40;;;0.30;;
10295;SDS011;5193;51.032;6.356;2023-03-14T07:23:49;0.40;;;0.40;;
10295;SDS011;5193;51.032;6.356;2023-03-14T07:26:15;0.30;;;0.30;;
10295;SDS011;5193;51.032;6.356;2023-03-14T07:28:41;0.50;;;0.40;;
10295;SDS011;5193;51.032;6.356;2023-03-14T07:31:06;0.57;;;0.33;;
10295;SDS011;5193;51.032;6.356;2023-03-14T07:33:33;0.50;;;0.50;;
10295;SDS011;5193;51.032;6.356;2023-03-14T07:35:58;0.67;;;0.40;;
10295;SDS011;5193;51.032;6.356;2023-03-14T07:38:24;0.73;;;0.60;;
10295;SDS011;5193;51.032;6.356;2023-03-14T07:40:50;0.30;;;0.30;;
10295;SDS011;5193;51.032;6.356;2023-03-14T07:43:15;4.20;;;0.50;;
10295;SDS011;5193;51.032;6.356;2023-03-14T07:45:44;0.60;;;0.40;;
10295;SDS011;5193;51.032;6.356;2023-03-14T07:48:11;0.40;;;0.40;;
10295;SDS011;5193;51.032;6.356;2023-03-14T07:50:36;0.87;;;0.40;;
10295;SDS011;5193;51.032;6.356;2023-03-14T07:53:02;1.80;;;0.43;;
10295;SDS011;5193;51.032;6.356;2023-03-14T07:55:27;0.40;;;0.40;;
10295;SDS011;5193;51.032;6.356;2023-03-14T07:57:53;0.30;;;0.30;;
10295;SDS011;5193;51.032;6.356;2023-03-14T08:00:18;0.50;;;0.50;;
10295;SDS011;5193;51.032;6.356;2023-03-14T08:02:44;0.63;;;0.47;;
10295;SDS011;5193;51.032;6.356;2023-03-14T08:05:10;0.73;;;0.50;;
10295;SDS011;5193;51.032;6.356;2023-03-14T08:07:35;0.53;;;0.43;;
10295;SDS011;5193;51.032;6.356;2023-03-14T08:10:01;1.23;;;0.50;;
10295;SDS011;5193;51.032;6.356;2023-03-14T08:12:27;0.77;;;0.50;;
10295;SDS011;5193;51.032;6.356;2023-03-14T08:14:52;0.43;;;0.43;;
10295;SDS011;5193;51.032;6.356;2023-03-14T08:17:18;0.67;;;0.67;;
10295;SDS011;5193;51.032;6.356;2023-03-14T08:19:44;0.50;;;0.50;;
10295;SDS011;5193;51.032;6.356;2023-03-14T08:22:09;1.03;;;0.60;;
10295;SDS011;5193;51.032;6.356;2023-03-14T08:24:35;0.60;;;0.60;;
10295;SDS011;5193;51.032;6.356;2023-03-14T08:27:00;1.30;;;0.50;;
10295;SDS011;5193;51.032;6.356;2023-03-14T08:29:26;0.50;;;0.50;;
10295;SDS011;5193;51.032;6.356;2023-03-14T08:31:51;1.37;;;0.80;;
10295;SDS011;5193;51.032;6.356;2023-03-14T08:34:17;2.20;;;0.50;;
10295;SDS011;5193;51.032;6.356;2023-03-14T08:36:42;1.50;;;1.10;;
10295;SDS011;5193;51.032;6.356;2023-03-14T08:39:08;1.87;;;0.90;;
10295;SDS011;5193;51.032;6.356;2023-03-14T08:41:34;4.57;;;0.80;;
10295;SDS011;5193;51.032;6.356;2023-03-14T08:44:05;1.07;;;0.70;;
10295;SDS011;5193;51.032;6.356;2023-03-14T08:46:31;1.27;;;0.60;;
10295;SDS011;5193;51.032;6.356;2023-03-14T08:48:57;0.40;;;0.40;;
10295;SDS011;5193;51.032;6.356;2023-03-14T08:51:22;3.40;;;0.67;;
10295;SDS011;5193;51.032;6.356;2023-03-14T08:53:48;0.57;;;0.57;;
10295;SDS011;5193;51.032;6.356;2023-03-14T08:56:13;0.80;;;0.50;;
10295;SDS011;5193;51.032;6.356;2023-03-14T08:58:39;1.67;;;0.40;;
10295;SDS011;5193;51.032;6.356;2023-03-14T09:01:07;1.13;;;0.53;;
10295;SDS011;5193;51.032;6.356;2023-03-14T09:03:34;0.30;;;0.30;;
10295;SDS011;5193;51.032;6.356;2023-03-14T09:06:06;0.30;;;0.30;;
10295;SDS011;5193;51.032;6.356;2023-03-14T09:08:33;0.47;;;0.40;;
10295;SDS011;5193;51.032;6.356;2023-03-14T09:10:59;0.30;;;0.30;;
10295;SDS011;5193;51.032;6.356;2023-03-14T09:13:25;0.30;;;0.30;;
10295;SDS011;5193;51.032;6.356;2023-03-14T09:15:51;0.30;;;0.30;;
10295;SDS011;5193;51.032;6.356;2023-03-14T09:18:17;0.63;;;0.40;;
10295;SDS011;5193;51.032;6.356;2023-03-14T09:20:43;0.90;;;0.70;;
10295;SDS011;5193;51.032;6.356;2023-03-14T09:23:09;1.37;;;0.80;;
10295;SDS011;5193;51.032;6.356;2023-03-14T09:25:34;0.97;;;0.80;;
10295;SDS011;5193;51.032;6.356;2023-03-14T09:28:00;0.60;;;0.60;;
10295;SDS011;5193;51.032;6.356;2023-03-14T09:30:25;1.37;;;0.60;;
10295;SDS011;5193;51.032;6.356;2023-03-14T09:32:51;1.00;;;0.70;;
10295;SDS011;5193;51.032;6.356;2023-03-14T09:35:16;0.80;;;0.80;;
10295;SDS011;5193;51.032;6.356;2023-03-14T09:37:42;0.60;;;0.60;;
10295;SDS011;5193;51.032;6.356;2023-03-14T09:40:11;0.80;;;0.70;;
10295;SDS011;5193;51.032;6.356;2023-03-14T09:42:38;1.13;;;0.60;;
10295;SDS011;5193;51.032;6.356;2023-03-14T09:45:06;0.70;;;0.70;;
10295;SDS011;5193;51.032;6.356;2023-03-14T09:47:38;0.50;;;0.50;;
10295;SDS011;5193;51.032;6.356;2023-03-14T09:50:05;1.07;;;0.60;;
10295;SDS011;5193;51.032;6.356;2023-03-14T09:52:38;0.60;;;0.60;;
10295;SDS011;5193;51.032;6.356;2023-03-14T09:55:10;1.37;;;0.60;;
10295;SDS011;5193;51.032;6.356;2023-03-14T09:57:38;2.03;;;0.77;;
10295;SDS011;5193;51.032;6.356;2023-03-14T10:02:55;2.17;;;0.60;;
10295;SDS011;5193;51.032;6.356;2023-03-14T10:05:25;1.37;;;0.70;;
10295;SDS011;5193;51.032;6.356;2023-03-14T10:07:52;1.87;;;0.80;;
10295;SDS011;5193;51.032;6.356;2023-03-14T10:12:46;2.67;;;0.70;;
10295;SDS011;5193;51.032;6.356;2023-03-14T10:15:13;0.93;;;0.83;;
10295;SDS011;5193;51.032;6.356;2023-03-14T10:17:47;1.30;;;1.20;;
10295;SDS011;5193;51.032;6.356;2023-03-14T10:20:36;4.13;;;1.33;;
10295;SDS011;5193;51.032;6.356;2023-03-14T10:23:04;3.30;;;1.50;;
10295;SDS011;5193;51.032;6.356;2023-03-14T10:25:59;1.17;;;1.00;;
10295;SDS011;5193;51.032;6.356;2023-03-14T10:28:32;0.93;;;0.90;;
10295;SDS011;5193;51.032;6.356;2023-03-14T10:31:00;2.03;;;1.20;;
10295;SDS011;5193;51.032;6.356;2023-03-14T10:33:27;1.53;;;1.07;;
10295;SDS011;5193;51.032;6.356;2023-03-14T10:35:59;2.87;;;1.30;;
10295;SDS011;5193;51.032;6.356;2023-03-14T10:38:39;1.10;;;1.00;;
10295;SDS011;5193;51.032;6.356;2023-03-14T10:41:24;1.93;;;1.10;;
10295;SDS011;5193;51.032;6.356;2023-03-14T10:43:56;1.70;;;1.30;;
10295;SDS011;5193;51.032;6.356;2023-03-14T10:46:24;2.13;;;1.50;;
10295;SDS011;5193;51.032;6.356;2023-03-14T10:48:52;3.07;;;1.50;;
10295;SDS011;5193;51.032;6.356;2023-03-14T10:51:19;2.40;;;1.50;;
10295;SDS011;5193;51.032;6.356;2023-03-14T10:54:00;0.93;;;0.93;;
10295;SDS011;5193;51.032;6.356;2023-03-14T10:56:33;2.27;;;1.27;;
10295;SDS011;5193;51.032;6.356;2023-03-14T10:59:00;2.40;;;1.30;;
10295;SDS011;5193;51.032;6.356;2023-03-14T11:01:37;2.90;;;1.87;;
10295;SDS011;5193;51.032;6.356;2023-03-14T11:07:08;1.97;;;1.13;;
10295;SDS011;5193;51.032;6.356;2023-03-14T11:10:08;2.70;;;1.50;;
10295;SDS011;5193;51.032;6.356;2023-03-14T11:15:20;1.27;;;0.70;;
10295;SDS011;5193;51.032;6.356;2023-03-14T11:18:00;1.23;;;0.90;;
10295;SDS011;5193;51.032;6.356;2023-03-14T11:20:38;2.20;;;0.93;;
10295;SDS011;5193;51.032;6.356;2023-03-14T11:26:33;1.40;;;1.03;;
10295;SDS011;5193;51.032;6.356;2023-03-14T11:31:57;2.53;;;0.60;;
10295;SDS011;5193;51.032;6.356;2023-03-14T11:34:40;0.60;;;0.57;;
10295;SDS011;5193;51.032;6.356;2023-03-14T11:37:17;1.80;;;0.87;;
10295;SDS011;5193;51.032;6.356;2023-03-14T11:40:01;2.63;;;0.70;;
10295;SDS011;5193;51.032;6.356;2023-03-14T11:42:30;0.90;;;0.60;;
10295;SDS011;5193;51.032;6.356;2023-03-14T11:44:57;1.23;;;0.70;;
10295;SDS011;5193;51.032;6.356;2023-03-14T11:47:28;2.30;;;0.80;;
10295;SDS011;5193;51.032;6.356;2023-03-14T11:50:14;1.77;;;0.80;;
10295;SDS011;5193;51.032;6.356;2023-03-14T11:55:28;3.60;;;0.67;;
10295;SDS011;5193;51.032;6.356;2023-03-14T11:58:09;4.80;;;1.33;;
10295;SDS011;5193;51.032;6.356;2023-03-14T12:00:44;0.50;;;0.50;;
10295;SDS011;5193;51.032;6.356;2023-03-14T12:05:47;3.60;;;1.00;;
10295;SDS011;5193;51.032;6.356;2023-03-14T12:10:56;2.50;;;0.70;;
10295;SDS011;5193;51.032;6.356;2023-03-14T12:13:31;3.53;;;1.00;;
10295;SDS011;5193;51.032;6.356;2023-03-14T12:16:03;4.50;;;1.20;;
10295;SDS011;5193;51.032;6.356;2023-03-14T12:18:31;4.70;;;1.20;;
10295;SDS011;5193;51.032;6.356;2023-03-14T12:21:04;3.07;;;0.93;;
10295;SDS011;5193;51.032;6.356;2023-03-14T12:23:51;3.57;;;1.03;;
10295;SDS011;5193;51.032;6.356;2023-03-14T12:26:20;5.80;;;1.43;;
10295;SDS011;5193;51.032;6.356;2023-03-14T12:29:09;2.33;;;0.80;;
10295;SDS011;5193;51.032;6.356;2023-03-14T12:31:43;4.03;;;1.10;;
10295;SDS011;5193;51.032;6.356;2023-03-14T12:41:43;6.40;;;1.03;;
10295;SDS011;5193;51.032;6.356;2023-03-14T12:47:14;4.87;;;1.50;;
10295;SDS011;5193;51.032;6.356;2023-03-14T12:49:43;5.10;;;1.50;;
10295;SDS011;5193;51.032;6.356;2023-03-14T12:52:21;8.23;;;1.60;;
10295;SDS011;5193;51.032;6.356;2023-03-14T12:55:00;5.73;;;1.70;;
10295;SDS011;5193;51.032;6.356;2023-03-14T12:57:33;9.90;;;2.07;;
10295;SDS011;5193;51.032;6.356;2023-03-14T13:00:50;11.50;;;2.07;;
10295;SDS011;5193;51.032;6.356;2023-03-14T13:03:20;6.97;;;1.20;;
10295;SDS011;5193;51.032;6.356;2023-03-14T13:08:36;7.27;;;1.47;;
10295;SDS011;5193;51.032;6.356;2023-03-14T13:11:05;10.07;;;2.00;;
10295;SDS011;5193;51.032;6.356;2023-03-14T13:13:48;5.73;;;1.00;;
10295;SDS011;5193;51.032;6.356;2023-03-14T13:16:20;4.23;;;1.43;;
10295;SDS011;5193;51.032;6.356;2023-03-14T13:19:32;7.63;;;1.47;;
10295;SDS011;5193;51.032;6.356;2023-03-14T13:21:47;6.70;;;1.23;;
10295;SDS011;5193;51.032;6.356;2023-03-14T13:26:49;8.03;;;1.23;;
10295;SDS011;5193;51.032;6.356;2023-03-14T13:31:50;8.70;;;1.63;;
10295;SDS011;5193;51.032;6.356;2023-03-14T13:34:26;12.40;;;1.80;;
10295;SDS011;5193;51.032;6.356;2023-03-14T13:36:54;10.23;;;1.77;;
10295;SDS011;5193;51.032;6.356;2023-03-14T13:39:22;6.50;;;1.47;;
10295;SDS011;5193;51.032;6.356;2023-03-14T13:41:54;10.07;;;2.00;;
10295;SDS011;5193;51.032;6.356;2023-03-14T13:44:25;9.33;;;1.60;;
10295;SDS011;5193;51.032;6.356;2023-03-14T13:46:51;15.40;;;2.20;;
10295;SDS011;5193;51.032;6.356;2023-03-14T13:49:22;17.10;;;2.10;;
10295;SDS011;5193;51.032;6.356;2023-03-14T13:51:50;10.93;;;2.23;;
10295;SDS011;5193;51.032;6.356;2023-03-14T13:54:17;11.33;;;2.00;;
10295;SDS011;5193;51.032;6.356;2023-03-14T13:56:44;7.00;;;1.93;;
10295;SDS011;5193;51.032;6.356;2023-03-14T13:59:25;12.30;;;2.47;;
10295;SDS011;5193;51.032;6.356;2023-03-14T14:01:53;11.57;;;2.10;;
10295;SDS011;5193;51.032;6.356;2023-03-14T14:04:21;3.57;;;1.07;;
10295;SDS011;5193;51.032;6.356;2023-03-14T14:06:57;11.13;;;2.23;;
10295;SDS011;5193;51.032;6.356;2023-03-14T14:09:28;8.73;;;2.03;;
10295;SDS011;5193;51.032;6.356;2023-03-14T14:17:08;14.00;;;2.70;;
10295;SDS011;5193;51.032;6.356;2023-03-14T14:19:37;13.63;;;2.57;;
10295;SDS011;5193;51.032;6.356;2023-03-14T14:22:03;14.50;;;2.57;;
10295;SDS011;5193;51.032;6.356;2023-03-14T14:24:32;13.30;;;2.63;;
10295;SDS011;5193;51.032;6.356;2023-03-14T14:27:00;16.17;;;2.53;;
10295;SDS011;5193;51.032;6.356;2023-03-14T14:29:33;12.00;;;2.70;;
10295;SDS011;5193;51.032;6.356;2023-03-14T14:32:00;17.43;;;2.73;;
10295;SDS011;5193;51.032;6.356;2023-03-14T14:34:26;10.67;;;2.40;;
10295;SDS011;5193;51.032;6.356;2023-03-14T14:36:52;9.80;;;1.90;;
10295;SDS011;5193;51.032;6.356;2023-03-14T14:39:20;7.67;;;2.27;;
10295;SDS011;5193;51.032;6.356;2023-03-14T14:41:48;9.80;;;2.00;;
10295;SDS011;5193;51.032;6.356;2023-03-14T14:44:19;15.10;;;2.67;;
10295;SDS011;5193;51.032;6.356;2023-03-14T14:46:54;12.80;;;2.03;;
10295;SDS011;5193;51.032;6.356;2023-03-14T14:49:21;11.43;;;2.53;;
10295;SDS011;5193;51.032;6.356;2023-03-14T14:52:00;9.57;;;2.07;;
10295;SDS011;5193;51.032;6.356;2023-03-14T14:54:52;7.83;;;2.20;;
10295;SDS011;5193;51.032;6.356;2023-03-14T14:57:24;13.40;;;2.47;;
10295;SDS011;5193;51.032;6.356;2023-03-14T14:59:55;14.93;;;2.67;;
10295;SDS011;5193;51.032;6.356;2023-03-14T15:02:38;15.07;;;2.50;;
10295;SDS011;5193;51.032;6.356;2023-03-14T15:05:13;11.67;;;2.87;;
10295;SDS011;5193;51.032;6.356;2023-03-14T15:07:38;19.40;;;3.63;;
10295;SDS011;5193;51.032;6.356;2023-03-14T15:10:04;17.40;;;2.53;;
10295;SDS011;5193;51.032;6.356;2023-03-14T15:12:30;17.83;;;2.40;;
10295;SDS011;5193;51.032;6.356;2023-03-14T15:14:55;15.03;;;2.93;;
10295;SDS011;5193;51.032;6.356;2023-03-14T15:17:22;13.20;;;2.53;;
10295;SDS011;5193;51.032;6.356;2023-03-14T15:19:49;10.07;;;2.20;;
10295;SDS011;5193;51.032;6.356;2023-03-14T15:22:15;9.30;;;2.90;;
10295;SDS011;5193;51.032;6.356;2023-03-14T15:24:41;15.00;;;2.80;;
10295;SDS011;5193;51.032;6.356;2023-03-14T15:27:13;22.70;;;2.73;;
10295;SDS011;5193;51.032;6.356;2023-03-14T15:29:41;13.60;;;2.97;;
10295;SDS011;5193;51.032;6.356;2023-03-14T15:32:13;17.10;;;2.80;;
10295;SDS011;5193;51.032;6.356;2023-03-14T15:34:41;14.47;;;3.03;;
10295;SDS011;5193;51.032;6.356;2023-03-14T15:37:14;10.23;;;2.30;;
10295;SDS011;5193;51.032;6.356;2023-03-14T15:39:41;11.57;;;2.47;;
10295;SDS011;5193;51.032;6.356;2023-03-14T15:42:07;21.47;;;2.90;;
10295;SDS011;5193;51.032;6.356;2023-03-14T15:44:33;14.47;;;2.27;;
10295;SDS011;5193;51.032;6.356;2023-03-14T15:46:59;12.70;;;2.07;;
10295;SDS011;5193;51.032;6.356;2023-03-14T15:49:25;7.67;;;1.83;;
10295;SDS011;5193;51.032;6.356;2023-03-14T15:51:51;8.47;;;1.50;;
10295;SDS011;5193;51.032;6.356;2023-03-14T15:54:17;5.20;;;1.70;;
10295;SDS011;5193;51.032;6.356;2023-03-14T15:56:42;14.37;;;2.10;;
10295;SDS011;5193;51.032;6.356;2023-03-14T15:59:08;6.00;;;1.77;;
10295;SDS011;5193;51.032;6.356;2023-03-14T16:01:33;8.03;;;1.70;;
10295;SDS011;5193;51.032;6.356;2023-03-14T16:03:59;8.20;;;1.60;;
10295;SDS011;5193;51.032;6.356;2023-03-14T16:06:27;8.70;;;1.63;;
10295;SDS011;5193;51.032;6.356;2023-03-14T16:08:52;10.67;;;1.50;;